createdAt,value
2022-10-19T07:50:38.253Z,1022.24
2022-10-19T07:51:38.381Z,1022.29
2022-10-19T07:52:39.876Z,1022.24
2022-10-19T07:53:38.619Z,1022.26
2022-10-19T07:54:38.822Z,1022.20
2022-10-19T07:55:38.802Z,1022.17
2022-10-19T07:56:40.064Z,1022.19
2022-10-19T07:57:40.700Z,1022.19
2022-10-19T07:58:39.193Z,1022.18
2022-10-19T07:59:39.182Z,1022.18
2022-10-19T08:01:39.340Z,1022.14
2022-10-19T08:02:54.844Z,1022.18
2022-10-19T08:04:31.752Z,1022.18
2022-10-19T08:04:59.796Z,1022.14
2022-10-19T08:05:40.550Z,1022.12
2022-10-19T08:06:39.720Z,1022.12
2022-10-19T08:07:39.606Z,1022.14
2022-10-19T08:08:40.855Z,1022.17
2022-10-19T08:09:52.714Z,1022.17
2022-10-19T08:10:40.867Z,1022.17
2022-10-19T08:11:39.983Z,1022.17
2022-10-19T08:12:39.868Z,1022.17
2022-10-19T08:13:41.139Z,1022.15
2022-10-19T08:14:40.047Z,1022.15
2022-10-19T08:15:41.269Z,1022.15
2022-10-19T08:16:40.039Z,1022.18
2022-10-19T08:17:41.328Z,1022.19
2022-10-19T08:18:40.222Z,1022.19
2022-10-19T08:19:40.369Z,1022.20
2022-10-19T08:20:40.295Z,1022.21
2022-10-19T08:21:41.429Z,1022.21
2022-10-19T08:22:40.262Z,1022.24
2022-10-19T08:23:41.553Z,1022.24
2022-10-19T08:24:40.508Z,1022.25
2022-10-19T08:25:40.492Z,1022.26
2022-10-19T08:26:40.421Z,1022.26
2022-10-19T08:27:41.673Z,1022.26
2022-10-19T08:28:40.462Z,1022.28
2022-10-19T08:29:43.856Z,1022.30
2022-10-19T08:30:40.533Z,1022.28
2022-10-19T08:32:01.644Z,1022.27
2022-10-19T08:32:40.579Z,1022.27
2022-10-19T08:33:40.738Z,1022.30
2022-10-19T08:34:40.615Z,1022.30
2022-10-19T08:35:41.805Z,1022.29
2022-10-19T08:37:45.740Z,1022.34
2022-10-19T08:38:40.736Z,1022.36
2022-10-19T08:39:42.972Z,1022.36
2022-10-19T08:40:40.809Z,1022.36
2022-10-19T08:41:40.980Z,1022.36
2022-10-19T08:42:40.821Z,1022.41
2022-10-19T08:43:41.018Z,1022.42
2022-10-19T08:44:40.840Z,1022.37
2022-10-19T08:46:40.830Z,1022.38
2022-10-19T08:47:40.980Z,1022.40
2022-10-19T08:48:40.902Z,1022.37
2022-10-19T08:49:41.015Z,1022.40
2022-10-19T08:50:40.869Z,1022.36
2022-10-19T08:51:41.002Z,1022.36
2022-10-19T08:52:40.883Z,1022.35
2022-10-19T08:53:42.083Z,1022.34
2022-10-19T08:54:40.941Z,1022.38
2022-10-19T08:55:42.629Z,1022.36
2022-10-19T08:56:56.088Z,1022.33
2022-10-19T08:57:41.964Z,1022.39
2022-10-19T08:58:42.155Z,1022.38
2022-10-19T08:59:41.002Z,1022.38
2022-10-19T09:00:41.186Z,1022.37
2022-10-19T09:01:40.970Z,1022.36
2022-10-19T09:02:43.309Z,1022.41
2022-10-19T09:03:55.120Z,1022.39
2022-10-19T09:04:42.021Z,1022.40
2022-10-19T09:06:02.076Z,1022.39
2022-10-19T09:06:41.061Z,1022.36
2022-10-19T09:07:42.209Z,1022.40
2022-10-19T09:08:41.127Z,1022.40
2022-10-19T09:09:42.357Z,1022.41
2022-10-19T09:10:41.110Z,1022.41
2022-10-19T09:11:43.319Z,1022.42
2022-10-19T09:12:41.168Z,1022.46
2022-10-19T09:14:03.675Z,1022.42
2022-10-19T09:14:42.371Z,1022.49
2022-10-19T09:15:41.193Z,1022.52
2022-10-19T09:16:42.400Z,1022.54
2022-10-19T09:17:41.590Z,1022.55
2022-10-19T09:18:41.485Z,1022.56
2022-10-19T09:19:41.282Z,1022.56
2022-10-19T09:20:41.372Z,1022.57
2022-10-19T09:21:47.057Z,1022.62
2022-10-19T09:22:42.298Z,1022.58
2022-10-19T09:23:42.494Z,1022.59
2022-10-19T09:24:41.263Z,1022.61
2022-10-19T09:25:41.510Z,1022.59
2022-10-19T09:26:41.256Z,1022.60
2022-10-19T09:27:42.474Z,1022.62
2022-10-19T09:28:41.269Z,1022.63
2022-10-19T09:29:41.413Z,1022.63
2022-10-19T09:30:41.384Z,1022.64
2022-10-19T09:31:42.593Z,1022.63
2022-10-19T09:32:41.339Z,1022.61
2022-10-19T09:33:41.482Z,1022.68
2022-10-19T09:34:41.367Z,1022.64
2022-10-19T09:35:42.583Z,1022.65
2022-10-19T09:36:56.624Z,1022.67
2022-10-19T09:37:42.381Z,1022.65
2022-10-19T09:38:42.558Z,1022.67
2022-10-19T09:39:47.871Z,1022.69
2022-10-19T09:40:42.429Z,1022.72
2022-10-19T09:41:41.712Z,1022.71
2022-10-19T09:42:41.513Z,1022.73
2022-10-19T09:43:42.671Z,1022.74
2022-10-19T09:44:41.551Z,1022.76
2022-10-19T09:45:42.739Z,1022.77
2022-10-19T09:46:41.604Z,1022.72
2022-10-19T09:48:08.569Z,1022.72
2022-10-19T09:48:42.583Z,1022.72
2022-10-19T09:50:03.792Z,1022.74
2022-10-19T09:50:41.793Z,1022.75
2022-10-19T09:51:42.765Z,1022.79
2022-10-19T09:52:41.663Z,1022.75
2022-10-19T09:53:42.787Z,1022.79
2022-10-19T09:54:41.801Z,1022.77
2022-10-19T09:55:41.867Z,1022.79
2022-10-19T09:56:41.701Z,1022.80
2022-10-19T09:57:42.881Z,1022.81
2022-10-19T09:58:41.751Z,1022.80
2022-10-19T09:59:41.880Z,1022.81
2022-10-19T10:00:41.730Z,1022.78
2022-10-19T10:01:43.540Z,1022.76
2022-10-19T10:02:41.783Z,1022.77
2022-10-19T10:03:42.974Z,1022.78
2022-10-19T10:04:41.768Z,1022.77
2022-10-19T10:05:42.858Z,1022.75
2022-10-19T10:06:41.785Z,1022.75
2022-10-19T10:07:42.955Z,1022.79
2022-10-19T10:08:41.831Z,1022.80
2022-10-19T10:09:42.002Z,1022.83
2022-10-19T10:11:07.802Z,1022.80
2022-10-19T10:15:28.889Z,1022.84
2022-10-19T10:16:29.071Z,1022.82
2022-10-19T10:17:29.259Z,1022.80
2022-10-19T10:18:29.431Z,1022.78
2022-10-19T10:19:29.561Z,1022.78
2022-10-19T10:20:29.740Z,1022.78
2022-10-19T10:21:29.932Z,1022.76
2022-10-19T10:22:30.122Z,1022.76
2022-10-19T10:23:30.314Z,1022.77
2022-10-19T10:24:30.494Z,1022.84
2022-10-19T10:25:30.674Z,1022.83
2022-10-19T10:26:30.926Z,1022.84
2022-10-19T10:27:27.914Z,1022.80
2022-10-19T10:28:28.076Z,1022.80
2022-10-19T10:29:28.225Z,1022.82
2022-10-19T10:30:28.386Z,1022.81
2022-10-19T10:31:28.544Z,1022.79
2022-10-19T10:32:28.723Z,1022.77
2022-10-19T10:33:40.689Z,1022.79
2022-10-19T10:34:37.947Z,1022.82
2022-10-19T10:35:30.032Z,1022.83
2022-10-19T10:36:29.166Z,1022.83
2022-10-19T10:37:29.351Z,1022.80
2022-10-19T10:38:29.438Z,1022.81
2022-10-19T10:39:29.588Z,1022.82
2022-10-19T10:40:29.739Z,1022.80
